createdAt,value
2022-07-31T00:00:22.946Z,50.21
2022-07-31T00:01:22.919Z,50.21
2022-07-31T00:02:22.919Z,50.31
2022-07-31T00:03:23.013Z,50.31
2022-07-31T00:04:22.927Z,50.21
2022-07-31T00:05:22.933Z,50.31
2022-07-31T00:06:22.923Z,50.02
2022-07-31T00:07:22.929Z,50.31
2022-07-31T00:08:22.924Z,50.31
2022-07-31T00:09:52.821Z,50.40
2022-07-31T00:10:22.935Z,50.21
2022-07-31T00:11:22.926Z,50.31
2022-07-31T00:12:22.929Z,50.40
2022-07-31T00:13:57.624Z,50.31
2022-07-31T00:14:22.933Z,50.31
2022-07-31T00:15:22.935Z,50.21
2022-07-31T00:16:22.932Z,49.92
2022-07-31T00:17:22.925Z,50.12
2022-07-31T00:18:22.924Z,50.12
2022-07-31T00:19:22.928Z,50.12
2022-07-31T00:20:22.939Z,50.12
2022-07-31T00:21:22.938Z,50.21
2022-07-31T00:22:22.932Z,50.21
2022-07-31T00:23:22.930Z,50.21
2022-07-31T00:24:22.936Z,50.12
2022-07-31T00:25:22.928Z,50.21
2022-07-31T00:26:22.926Z,50.12
2022-07-31T00:27:22.936Z,50.12
2022-07-31T00:28:22.932Z,50.12
2022-07-31T00:29:22.938Z,50.31
2022-07-31T00:30:22.929Z,50.31
2022-07-31T00:31:22.943Z,50.12
2022-07-31T00:32:22.937Z,50.40
2022-07-31T00:33:22.933Z,50.12
2022-07-31T00:34:22.934Z,50.21
2022-07-31T00:35:22.944Z,50.21
2022-07-31T00:36:29.906Z,50.12
2022-07-31T00:37:22.945Z,50.31
2022-07-31T00:38:30.112Z,50.12
2022-07-31T00:39:22.937Z,50.02
2022-07-31T00:40:22.958Z,50.12
2022-07-31T00:41:22.934Z,50.12
2022-07-31T00:42:22.936Z,50.12
2022-07-31T00:43:22.937Z,50.02
2022-07-31T00:44:22.940Z,49.92
2022-07-31T00:45:28.938Z,49.92
2022-07-31T00:46:23.205Z,50.02
2022-07-31T00:47:24.034Z,49.92
2022-07-31T00:48:22.947Z,50.21
2022-07-31T00:49:23.000Z,50.12
2022-07-31T00:50:22.946Z,50.21
2022-07-31T00:51:22.948Z,50.31
2022-07-31T00:52:22.948Z,50.31
2022-07-31T00:53:22.946Z,50.31
2022-07-31T00:54:23.292Z,50.12
2022-07-31T00:55:22.951Z,50.40
2022-07-31T00:56:22.944Z,50.40
2022-07-31T00:57:22.950Z,50.40
2022-07-31T00:58:22.948Z,50.50
2022-07-31T00:59:24.398Z,50.50
2022-07-31T01:00:22.955Z,50.12
2022-07-31T01:01:23.117Z,49.99
2022-07-31T01:02:22.955Z,50.12
2022-07-31T01:03:22.981Z,50.40
2022-07-31T01:04:22.953Z,50.40
2022-07-31T01:05:22.957Z,50.12
2022-07-31T01:06:22.956Z,50.50
2022-07-31T01:07:22.947Z,50.50
2022-07-31T01:08:22.957Z,50.38
2022-07-31T01:09:22.961Z,50.40
2022-07-31T01:10:22.954Z,50.50
2022-07-31T01:11:22.953Z,50.31
2022-07-31T01:12:22.957Z,50.60
2022-07-31T01:13:22.957Z,50.40
2022-07-31T01:14:22.958Z,50.70
2022-07-31T01:15:22.961Z,50.40
2022-07-31T01:16:22.963Z,50.28
2022-07-31T01:17:22.954Z,50.50
2022-07-31T01:18:22.966Z,50.38
2022-07-31T01:19:22.961Z,50.40
2022-07-31T01:20:22.966Z,50.38
2022-07-31T01:21:22.956Z,50.38
2022-07-31T01:22:33.851Z,50.60
2022-07-31T01:23:22.966Z,50.40
2022-07-31T01:24:22.959Z,50.31
2022-07-31T01:25:22.968Z,50.38
2022-07-31T01:26:22.967Z,50.40
2022-07-31T01:27:22.966Z,50.60
2022-07-31T01:28:22.971Z,50.40
2022-07-31T01:29:22.955Z,50.50
2022-07-31T01:30:24.784Z,50.70
2022-07-31T01:31:27.459Z,50.50
2022-07-31T01:32:27.811Z,50.67
2022-07-31T01:33:22.979Z,50.67
2022-07-31T01:34:22.970Z,50.89
2022-07-31T01:35:22.959Z,50.98
2022-07-31T01:36:22.969Z,50.79
2022-07-31T01:37:22.959Z,50.76
2022-07-31T01:38:22.971Z,50.86
2022-07-31T01:39:22.965Z,50.38
2022-07-31T01:40:22.973Z,50.76
2022-07-31T01:41:22.973Z,50.76
2022-07-31T01:42:22.969Z,51.06
2022-07-31T01:43:22.973Z,50.48
2022-07-31T01:44:22.970Z,51.06
2022-07-31T01:45:22.966Z,51.15
2022-07-31T01:46:22.971Z,51.06
2022-07-31T01:47:22.974Z,50.76
2022-07-31T01:48:22.963Z,50.76
2022-07-31T01:49:23.037Z,50.86
2022-07-31T01:50:42.405Z,51.06
2022-07-31T01:51:22.964Z,50.76
2022-07-31T01:52:22.963Z,50.76
2022-07-31T01:53:22.982Z,50.86
2022-07-31T01:54:22.964Z,50.86
2022-07-31T01:55:22.977Z,50.96
2022-07-31T01:56:22.974Z,50.96
2022-07-31T01:57:22.975Z,50.67
2022-07-31T01:58:22.975Z,50.86
2022-07-31T01:59:23.655Z,51.06
2022-07-31T02:00:33.423Z,51.06
2022-07-31T02:01:26.985Z,50.86
2022-07-31T02:02:22.987Z,50.76
2022-07-31T02:03:43.728Z,51.15
2022-07-31T02:04:22.970Z,50.96
2022-07-31T02:05:22.971Z,51.25
2022-07-31T02:06:22.967Z,51.44
2022-07-31T02:07:22.976Z,51.25
2022-07-31T02:08:22.968Z,51.35
2022-07-31T02:09:22.969Z,51.25
2022-07-31T02:10:22.975Z,51.54
2022-07-31T02:11:22.985Z,51.54
2022-07-31T02:12:32.001Z,51.15
2022-07-31T02:13:22.972Z,51.25
2022-07-31T02:14:22.975Z,51.15
2022-07-31T02:15:22.968Z,51.44
2022-07-31T02:16:22.978Z,51.15
2022-07-31T02:17:22.976Z,51.35
2022-07-31T02:18:22.979Z,51.15
2022-07-31T02:19:23.365Z,51.25
2022-07-31T02:20:22.976Z,51.35
2022-07-31T02:21:22.987Z,51.06
2022-07-31T02:22:24.046Z,51.06
2022-07-31T02:23:22.977Z,51.06
2022-07-31T02:24:22.971Z,51.06
2022-07-31T02:25:22.982Z,51.06
2022-07-31T02:26:22.976Z,51.25
2022-07-31T02:27:56.201Z,51.06
2022-07-31T02:28:22.981Z,50.86
2022-07-31T02:29:22.980Z,51.06
2022-07-31T02:30:23.023Z,51.44
2022-07-31T02:31:22.971Z,51.44
2022-07-31T02:32:22.973Z,51.44
2022-07-31T02:33:22.973Z,51.06
2022-07-31T02:34:22.976Z,51.35
2022-07-31T02:35:22.992Z,51.25
2022-07-31T02:36:22.977Z,51.25
2022-07-31T02:37:22.992Z,51.25
2022-07-31T02:38:23.886Z,51.25
2022-07-31T02:39:25.557Z,51.06
2022-07-31T02:40:22.976Z,51.25
2022-07-31T02:41:22.986Z,51.06
2022-07-31T02:42:22.974Z,51.54
2022-07-31T02:43:22.989Z,51.35
2022-07-31T02:44:27.178Z,51.35
2022-07-31T02:45:22.973Z,51.54
2022-07-31T02:46:22.977Z,51.54
2022-07-31T02:47:22.973Z,51.44
2022-07-31T02:48:22.989Z,51.44
2022-07-31T02:49:23.078Z,51.54
2022-07-31T02:50:22.977Z,51.54
2022-07-31T02:51:22.986Z,51.35
2022-07-31T02:52:22.975Z,51.35
2022-07-31T02:53:22.983Z,51.35
2022-07-31T02:54:22.977Z,51.64
2022-07-31T02:55:22.983Z,51.73
2022-07-31T02:56:22.987Z,51.64
2022-07-31T02:57:22.980Z,51.64
2022-07-31T02:58:22.981Z,51.73
2022-07-31T02:59:22.988Z,52.02
2022-07-31T03:00:23.261Z,52.02
2022-07-31T03:01:23.091Z,51.83
2022-07-31T03:02:22.977Z,51.83
2022-07-31T03:03:22.988Z,51.93
2022-07-31T03:04:22.985Z,51.93
2022-07-31T03:05:22.978Z,51.83
2022-07-31T03:06:22.985Z,51.81
2022-07-31T03:07:22.993Z,51.83
2022-07-31T03:08:22.981Z,52.09
2022-07-31T03:09:22.980Z,52.12
2022-07-31T03:10:22.986Z,52.02
2022-07-31T03:11:22.982Z,51.64
2022-07-31T03:12:22.986Z,51.93
2022-07-31T03:13:22.980Z,51.93
2022-07-31T03:14:22.992Z,51.54
2022-07-31T03:15:22.995Z,51.64
2022-07-31T03:16:22.989Z,51.81
2022-07-31T03:17:22.982Z,51.71
2022-07-31T03:18:22.988Z,51.71
2022-07-31T03:19:22.987Z,51.61
2022-07-31T03:20:22.979Z,51.64
2022-07-31T03:21:22.989Z,51.61
2022-07-31T03:22:22.987Z,52.00
2022-07-31T03:23:22.978Z,51.71
2022-07-31T03:24:22.982Z,51.90
2022-07-31T03:25:22.993Z,51.81
2022-07-31T03:26:22.999Z,51.90
2022-07-31T03:27:22.979Z,51.90
2022-07-31T03:28:23.008Z,51.90
2022-07-31T03:29:43.523Z,51.71
2022-07-31T03:30:22.992Z,52.00
2022-07-31T03:31:22.983Z,51.90
2022-07-31T03:32:22.990Z,52.09
2022-07-31T03:33:22.988Z,52.09
2022-07-31T03:34:22.988Z,52.19
2022-07-31T03:35:22.999Z,52.09
2022-07-31T03:36:22.991Z,51.90
2022-07-31T03:37:22.996Z,52.09
2022-07-31T03:38:38.247Z,52.39
2022-07-31T03:39:22.985Z,52.09
2022-07-31T03:40:22.991Z,52.19
2022-07-31T03:41:22.997Z,52.19
2022-07-31T03:42:22.989Z,52.00
2022-07-31T03:43:22.986Z,52.00
2022-07-31T03:44:22.987Z,52.19
2022-07-31T03:45:22.990Z,52.77
2022-07-31T03:46:22.989Z,52.19
2022-07-31T03:47:22.991Z,52.19
2022-07-31T03:48:22.985Z,52.09
2022-07-31T03:49:23.101Z,52.19
2022-07-31T03:50:22.988Z,52.19
2022-07-31T03:51:22.993Z,52.09
2022-07-31T03:52:22.991Z,52.19
2022-07-31T03:53:22.991Z,52.19
2022-07-31T03:54:22.984Z,52.77
2022-07-31T03:55:22.985Z,52.09
2022-07-31T03:56:22.992Z,52.77
2022-07-31T03:57:25.363Z,52.77
2022-07-31T03:58:22.990Z,52.29
2022-07-31T03:59:22.987Z,52.09
2022-07-31T04:00:23.014Z,52.19
2022-07-31T04:01:23.024Z,52.09
2022-07-31T04:02:23.011Z,52.87
2022-07-31T04:03:22.989Z,52.77
2022-07-31T04:04:23.006Z,52.67
2022-07-31T04:05:22.994Z,52.77
2022-07-31T04:06:22.994Z,52.67
2022-07-31T04:07:22.991Z,52.58
2022-07-31T04:08:22.992Z,52.67
2022-07-31T04:09:22.988Z,52.58
2022-07-31T04:10:22.992Z,52.77
2022-07-31T04:11:22.983Z,52.67
2022-07-31T04:12:22.994Z,52.58
2022-07-31T04:13:22.992Z,52.58
2022-07-31T04:14:22.990Z,52.77
2022-07-31T04:15:22.988Z,52.67
2022-07-31T04:16:22.985Z,52.67
2022-07-31T04:17:23.017Z,52.39
2022-07-31T04:18:22.987Z,52.77
2022-07-31T04:19:22.986Z,52.67
2022-07-31T04:20:22.985Z,52.67
2022-07-31T04:21:22.996Z,52.77
2022-07-31T04:22:22.983Z,52.58
2022-07-31T04:23:22.990Z,52.67
2022-07-31T04:24:22.997Z,52.58
2022-07-31T04:25:22.985Z,52.67
2022-07-31T04:26:25.708Z,52.67
2022-07-31T04:27:22.991Z,52.67
2022-07-31T04:28:22.988Z,52.67
2022-07-31T04:29:22.989Z,52.77
2022-07-31T04:30:22.982Z,52.67
2022-07-31T04:31:22.990Z,52.77
2022-07-31T04:32:22.982Z,52.67
2022-07-31T04:33:22.989Z,52.77
2022-07-31T04:34:22.994Z,52.29
2022-07-31T04:35:22.986Z,52.48
2022-07-31T04:36:29.620Z,52.39
2022-07-31T04:37:22.992Z,52.39
2022-07-31T04:38:22.989Z,52.48
2022-07-31T04:39:22.984Z,52.48
2022-07-31T04:40:22.999Z,52.48
2022-07-31T04:41:22.986Z,52.67
2022-07-31T04:42:22.993Z,52.48
2022-07-31T04:43:22.992Z,52.48
2022-07-31T04:44:22.986Z,52.48
2022-07-31T04:45:22.983Z,52.58
2022-07-31T04:46:22.978Z,52.58
2022-07-31T04:47:22.978Z,52.48
2022-07-31T04:48:22.986Z,52.48
2022-07-31T04:49:23.149Z,52.58
2022-07-31T04:50:22.982Z,52.58
2022-07-31T04:51:22.989Z,52.48
2022-07-31T04:52:22.986Z,52.48
2022-07-31T04:53:22.981Z,52.58
2022-07-31T04:54:22.989Z,52.36
2022-07-31T04:55:22.982Z,52.48
2022-07-31T04:56:22.980Z,52.58
2022-07-31T04:57:22.980Z,52.48
2022-07-31T04:58:22.986Z,52.48
2022-07-31T04:59:22.986Z,52.48
2022-07-31T05:00:22.981Z,52.48
2022-07-31T05:01:23.033Z,52.48
2022-07-31T05:02:22.986Z,52.45
2022-07-31T05:03:22.995Z,52.45
2022-07-31T05:04:22.977Z,52.55
2022-07-31T05:05:22.981Z,52.48
2022-07-31T05:06:22.993Z,52.55
2022-07-31T05:07:22.989Z,52.65
2022-07-31T05:08:22.981Z,52.48
2022-07-31T05:09:23.583Z,52.58
2022-07-31T05:10:22.991Z,52.58
2022-07-31T05:11:22.978Z,52.67
2022-07-31T05:12:23.004Z,52.67
2022-07-31T05:13:22.984Z,52.58
2022-07-31T05:14:22.985Z,52.67
2022-07-31T05:15:22.976Z,52.58
2022-07-31T05:16:22.985Z,52.77
2022-07-31T05:17:22.988Z,52.67
2022-07-31T05:18:22.981Z,52.39
2022-07-31T05:19:22.992Z,52.67
2022-07-31T05:20:22.982Z,52.67
2022-07-31T05:21:22.980Z,52.77
2022-07-31T05:22:22.987Z,52.77
2022-07-31T05:23:22.982Z,52.67
2022-07-31T05:24:33.597Z,52.77
2022-07-31T05:25:22.989Z,52.87
2022-07-31T05:26:22.996Z,52.39
2022-07-31T05:27:22.979Z,52.77
2022-07-31T05:28:30.111Z,52.67
2022-07-31T05:29:22.983Z,52.67
2022-07-31T05:30:30.381Z,52.67
2022-07-31T05:31:22.984Z,52.67
2022-07-31T05:32:22.995Z,52.87
2022-07-31T05:33:22.992Z,52.77
2022-07-31T05:34:22.986Z,52.67
2022-07-31T05:35:22.982Z,52.77
2022-07-31T05:36:22.977Z,52.77
2022-07-31T05:37:22.985Z,52.67
2022-07-31T05:38:22.985Z,52.67
2022-07-31T05:39:22.979Z,52.67
2022-07-31T05:40:22.989Z,52.77
2022-07-31T05:41:22.988Z,52.67
2022-07-31T05:42:22.992Z,52.77
2022-07-31T05:43:22.982Z,52.87
2022-07-31T05:44:22.982Z,52.67
2022-07-31T05:45:22.976Z,52.67
2022-07-31T05:46:22.988Z,52.67
2022-07-31T05:47:22.985Z,52.58
2022-07-31T05:48:22.980Z,52.67
2022-07-31T05:49:23.002Z,52.77
2022-07-31T05:50:22.976Z,52.67
2022-07-31T05:51:22.988Z,52.77
2022-07-31T05:52:22.993Z,52.67
2022-07-31T05:53:22.983Z,52.77
2022-07-31T05:54:22.995Z,52.77
2022-07-31T05:55:22.997Z,52.77
2022-07-31T05:56:22.985Z,52.67
2022-07-31T05:57:33.640Z,52.58
2022-07-31T05:58:22.981Z,52.39
2022-07-31T05:59:22.983Z,52.39
2022-07-31T06:00:22.977Z,52.39
2022-07-31T06:01:23.071Z,52.58
2022-07-31T06:02:22.988Z,52.48
2022-07-31T06:03:22.976Z,52.58
2022-07-31T06:04:22.988Z,52.58
2022-07-31T06:05:22.974Z,52.48
2022-07-31T06:06:22.975Z,52.58
2022-07-31T06:07:22.988Z,52.58
2022-07-31T06:08:22.989Z,52.19
2022-07-31T06:09:22.989Z,52.58
2022-07-31T06:10:22.978Z,52.39
2022-07-31T06:11:22.986Z,52.19
2022-07-31T06:12:22.984Z,52.48
2022-07-31T06:13:22.986Z,52.48
2022-07-31T06:14:22.976Z,52.58
2022-07-31T06:15:22.977Z,52.58
2022-07-31T06:16:22.988Z,52.48
2022-07-31T06:17:22.991Z,52.48
2022-07-31T06:18:22.980Z,52.48
2022-07-31T06:19:24.286Z,52.58
2022-07-31T06:20:22.984Z,52.58
2022-07-31T06:21:24.809Z,52.19
2022-07-31T06:22:22.985Z,52.48
2022-07-31T06:23:29.752Z,52.67
2022-07-31T06:24:22.983Z,52.67
2022-07-31T06:25:22.993Z,52.48
2022-07-31T06:26:24.305Z,52.67
2022-07-31T06:27:34.098Z,52.48
2022-07-31T06:28:35.376Z,52.48
2022-07-31T06:29:40.112Z,52.97
2022-07-31T06:30:22.980Z,52.67
2022-07-31T06:31:22.981Z,52.97
2022-07-31T06:32:22.992Z,52.97
2022-07-31T06:33:37.408Z,52.67
2022-07-31T06:34:22.981Z,52.77
2022-07-31T06:35:22.986Z,52.77
2022-07-31T06:36:22.987Z,52.77
2022-07-31T06:37:22.987Z,52.87
2022-07-31T06:38:22.989Z,52.77
2022-07-31T06:39:22.990Z,52.97
2022-07-31T06:40:22.990Z,52.58
2022-07-31T06:41:22.994Z,52.70
2022-07-31T06:42:22.987Z,52.77
2022-07-31T06:43:22.992Z,52.80
2022-07-31T06:44:22.980Z,52.58
2022-07-31T06:45:41.889Z,52.58
2022-07-31T06:46:22.989Z,52.48
2022-07-31T06:47:22.994Z,52.58
2022-07-31T06:48:23.000Z,52.58
2022-07-31T06:49:23.050Z,52.58
2022-07-31T06:50:22.980Z,52.58
2022-07-31T06:51:31.762Z,52.80
2022-07-31T06:52:22.999Z,52.87
2022-07-31T06:53:22.994Z,52.87
2022-07-31T06:54:26.741Z,52.80
2022-07-31T06:55:22.985Z,52.87
2022-07-31T06:56:22.986Z,52.70
2022-07-31T06:57:22.998Z,52.70
2022-07-31T06:58:22.983Z,52.58
2022-07-31T06:59:39.951Z,52.61
2022-07-31T07:00:22.981Z,52.77
2022-07-31T07:01:23.079Z,52.70
2022-07-31T07:02:22.996Z,52.80
2022-07-31T07:03:22.990Z,52.61
2022-07-31T07:04:23.003Z,52.61
2022-07-31T07:05:23.002Z,52.70
2022-07-31T07:06:23.001Z,52.70
2022-07-31T07:07:22.988Z,52.51
2022-07-31T07:08:22.998Z,52.89
2022-07-31T07:09:22.994Z,52.80
2022-07-31T07:10:22.997Z,52.61
2022-07-31T07:11:22.998Z,52.80
2022-07-31T07:12:22.997Z,52.89
2022-07-31T07:13:23.574Z,52.80
2022-07-31T07:14:22.994Z,52.80
2022-07-31T07:15:22.996Z,52.89
2022-07-31T07:16:22.995Z,52.89
2022-07-31T07:17:27.168Z,53.09
2022-07-31T07:18:23.002Z,52.70
2022-07-31T07:19:22.990Z,52.80
2022-07-31T07:20:23.058Z,52.80
2022-07-31T07:21:22.993Z,52.99
2022-07-31T07:22:31.769Z,52.99
2022-07-31T07:23:22.998Z,52.61
2022-07-31T07:24:22.994Z,52.51
2022-07-31T07:25:23.009Z,52.51
2022-07-31T07:26:23.006Z,52.61
2022-07-31T07:27:22.993Z,52.51
2022-07-31T07:28:30.729Z,52.61
2022-07-31T07:29:23.001Z,52.51
2022-07-31T07:30:22.992Z,52.51
2022-07-31T07:32:05.654Z,52.53
2022-07-31T07:33:05.218Z,52.51
2022-07-31T07:34:05.238Z,52.44
2022-07-31T07:35:05.226Z,52.44
2022-07-31T07:36:05.229Z,52.80
2022-07-31T07:37:05.233Z,52.82
2022-07-31T07:38:05.239Z,52.80
2022-07-31T07:39:05.232Z,52.63
2022-07-31T07:40:05.232Z,52.70
2022-07-31T07:41:05.225Z,52.73
2022-07-31T07:42:05.581Z,52.73
2022-07-31T07:43:05.232Z,52.73
2022-07-31T07:44:05.222Z,52.73
2022-07-31T07:45:07.982Z,52.82
2022-07-31T07:46:05.227Z,52.82
2022-07-31T07:47:05.238Z,52.92
2022-07-31T07:48:07.405Z,52.73
2022-07-31T07:49:05.312Z,52.73
2022-07-31T07:50:05.247Z,52.73
2022-07-31T07:51:05.236Z,52.73
2022-07-31T07:52:05.244Z,52.82
2022-07-31T07:53:05.232Z,52.82
2022-07-31T07:54:05.231Z,52.53
2022-07-31T07:55:05.245Z,52.63
2022-07-31T07:56:05.236Z,52.73
2022-07-31T07:57:05.240Z,52.73
2022-07-31T07:58:08.847Z,52.44
2022-07-31T07:59:05.242Z,52.63
2022-07-31T08:00:05.237Z,52.73
2022-07-31T08:01:05.301Z,52.92
2022-07-31T08:02:05.624Z,52.82
2022-07-31T08:03:48.650Z,52.63
2022-07-31T08:04:05.252Z,53.02
2022-07-31T08:05:05.245Z,53.19
2022-07-31T08:06:05.250Z,53.21
2022-07-31T08:07:05.255Z,53.19
2022-07-31T08:08:05.255Z,53.21
2022-07-31T08:09:05.248Z,53.31
2022-07-31T08:10:05.253Z,53.41
2022-07-31T08:11:05.259Z,52.73
2022-07-31T08:12:05.553Z,53.41
2022-07-31T08:13:05.272Z,53.59
2022-07-31T08:14:05.253Z,52.73
2022-07-31T08:15:05.263Z,53.11
2022-07-31T08:16:05.253Z,53.21
2022-07-31T08:17:05.252Z,53.02
2022-07-31T08:18:05.251Z,53.02
2022-07-31T08:19:05.249Z,52.44
2022-07-31T08:20:05.259Z,52.92
2022-07-31T08:21:05.262Z,52.44
2022-07-31T08:22:05.767Z,52.92
2022-07-31T08:23:05.256Z,53.11
2022-07-31T08:24:05.277Z,52.44
2022-07-31T08:25:05.982Z,52.44
2022-07-31T08:26:06.554Z,53.11
2022-07-31T08:27:08.716Z,53.02
2022-07-31T08:28:05.613Z,53.02
2022-07-31T08:29:05.413Z,53.11
2022-07-31T08:30:05.263Z,53.21
2022-07-31T08:31:05.261Z,53.11
2022-07-31T08:32:05.583Z,52.82
2022-07-31T08:33:05.265Z,52.92
2022-07-31T08:34:05.262Z,53.02
2022-07-31T08:35:05.268Z,52.63
2022-07-31T08:36:05.265Z,52.92
2022-07-31T08:37:51.184Z,52.73
2022-07-31T08:38:05.276Z,52.73
2022-07-31T08:39:05.279Z,52.66
2022-07-31T08:40:05.278Z,52.75
2022-07-31T08:41:05.277Z,52.75
2022-07-31T08:42:05.605Z,52.63
2022-07-31T08:43:14.645Z,52.66
2022-07-31T08:44:05.267Z,52.66
2022-07-31T08:45:05.280Z,52.85
2022-07-31T08:46:05.271Z,52.75
2022-07-31T08:47:05.286Z,52.85
2022-07-31T08:48:05.272Z,52.66
2022-07-31T08:49:05.380Z,52.75
2022-07-31T08:50:05.274Z,52.66
2022-07-31T08:51:05.276Z,53.11
2022-07-31T08:52:05.617Z,53.11
2022-07-31T08:53:05.277Z,52.73
2022-07-31T08:54:05.281Z,52.92
2022-07-31T08:55:05.297Z,53.31
2022-07-31T08:56:05.283Z,53.31
2022-07-31T08:57:05.606Z,53.31
2022-07-31T08:58:05.292Z,53.23
2022-07-31T08:59:05.281Z,53.31
2022-07-31T09:00:05.279Z,53.41
2022-07-31T09:01:05.351Z,53.23
2022-07-31T09:02:05.813Z,53.23
2022-07-31T09:03:05.282Z,53.33
2022-07-31T09:04:05.295Z,53.21
2022-07-31T09:05:05.298Z,53.33
2022-07-31T09:06:05.298Z,53.41
2022-07-31T09:07:05.573Z,53.14
2022-07-31T09:08:12.384Z,53.11
2022-07-31T09:09:05.282Z,53.33
2022-07-31T09:10:05.286Z,53.02
2022-07-31T09:11:05.938Z,53.21
2022-07-31T09:12:05.292Z,53.59
2022-07-31T09:13:05.287Z,53.59
2022-07-31T09:14:05.291Z,53.50
2022-07-31T09:15:05.295Z,53.41
2022-07-31T09:16:05.297Z,53.21
2022-07-31T09:17:05.738Z,53.89
2022-07-31T09:18:05.299Z,53.59
2022-07-31T09:19:51.110Z,53.79
2022-07-31T09:20:05.296Z,53.31
2022-07-31T09:21:05.290Z,53.79
2022-07-31T09:22:10.096Z,53.41
2022-07-31T09:23:05.319Z,53.89
2022-07-31T09:24:05.290Z,53.50
2022-07-31T09:25:05.291Z,53.59
2022-07-31T09:26:05.292Z,53.50
2022-07-31T09:27:05.713Z,54.47
2022-07-31T09:28:05.296Z,54.37
2022-07-31T09:29:05.293Z,54.17
2022-07-31T09:30:05.298Z,53.99
2022-07-31T09:31:05.292Z,54.27
2022-07-31T09:32:05.291Z,54.17
2022-07-31T09:33:05.291Z,53.99
2022-07-31T09:34:05.292Z,53.99
2022-07-31T09:35:05.289Z,54.08
2022-07-31T09:36:05.302Z,54.17
2022-07-31T09:37:05.610Z,54.08
2022-07-31T09:38:05.292Z,54.17
2022-07-31T09:39:05.487Z,53.99
2022-07-31T09:40:05.295Z,53.99
2022-07-31T09:41:52.336Z,54.17
2022-07-31T09:42:16.579Z,54.17
2022-07-31T09:43:05.301Z,54.17
2022-07-31T09:44:09.934Z,54.17
2022-07-31T09:45:05.286Z,53.79
2022-07-31T09:46:05.301Z,53.99
2022-07-31T09:47:05.717Z,53.99
2022-07-31T09:48:05.301Z,54.17
2022-07-31T09:49:05.330Z,54.08
2022-07-31T09:50:05.305Z,53.99
2022-07-31T09:51:05.295Z,54.17
2022-07-31T09:52:05.305Z,53.99
2022-07-31T09:53:05.299Z,53.79
2022-07-31T09:54:05.289Z,54.17
2022-07-31T09:55:15.974Z,53.99
2022-07-31T09:56:05.298Z,53.79
2022-07-31T09:57:05.684Z,53.99
2022-07-31T09:58:05.300Z,54.17
2022-07-31T09:59:05.297Z,53.99
2022-07-31T10:00:05.300Z,54.17
2022-07-31T10:01:05.339Z,54.17
2022-07-31T10:02:05.296Z,53.89
2022-07-31T10:03:05.301Z,54.17
2022-07-31T10:04:05.307Z,53.99
2022-07-31T10:05:05.298Z,54.37
2022-07-31T10:06:05.305Z,54.27
2022-07-31T10:07:05.860Z,54.47
2022-07-31T10:08:05.302Z,54.21
2022-07-31T10:09:05.309Z,54.11
2022-07-31T10:10:05.299Z,54.21
2022-07-31T10:11:05.302Z,53.59
2022-07-31T10:12:05.306Z,53.69
2022-07-31T10:13:05.300Z,53.72
2022-07-31T10:14:05.294Z,53.53
2022-07-31T10:15:05.294Z,53.63
2022-07-31T10:16:05.300Z,53.53
2022-07-31T10:17:05.621Z,53.53
2022-07-31T10:18:05.307Z,53.53
2022-07-31T10:19:05.302Z,53.63
2022-07-31T10:20:05.313Z,54.30
2022-07-31T10:21:05.297Z,54.01
2022-07-31T10:22:05.301Z,54.27
2022-07-31T10:23:05.312Z,54.30
2022-07-31T10:24:05.306Z,54.39
2022-07-31T10:25:05.302Z,54.27
2022-07-31T10:26:05.308Z,54.49
2022-07-31T10:27:09.370Z,54.37
2022-07-31T10:28:05.309Z,54.39
2022-07-31T10:29:05.307Z,54.39
2022-07-31T10:30:05.305Z,54.01
2022-07-31T10:31:05.298Z,54.11
2022-07-31T10:32:05.307Z,53.99
2022-07-31T10:33:10.625Z,54.01
2022-07-31T10:34:05.310Z,54.21
2022-07-31T10:35:05.313Z,54.21
2022-07-31T10:36:05.330Z,54.39
2022-07-31T10:37:05.530Z,54.01
2022-07-31T10:38:05.303Z,54.39
2022-07-31T10:39:05.300Z,54.08
2022-07-31T10:40:05.308Z,54.01
2022-07-31T10:41:05.307Z,54.17
2022-07-31T10:42:05.309Z,54.21
2022-07-31T10:43:05.308Z,54.11
2022-07-31T10:44:05.306Z,54.17
2022-07-31T10:45:05.322Z,54.17
2022-07-31T10:46:05.313Z,54.21
2022-07-31T10:47:05.558Z,54.21
2022-07-31T10:48:05.310Z,54.21
2022-07-31T10:49:08.360Z,54.17
2022-07-31T10:50:05.303Z,54.17
2022-07-31T10:51:05.301Z,54.30
2022-07-31T10:52:05.306Z,54.39
2022-07-31T10:53:05.388Z,54.39
2022-07-31T10:54:05.312Z,54.39
2022-07-31T10:55:05.330Z,54.39
2022-07-31T10:56:05.313Z,54.39
2022-07-31T10:57:05.581Z,54.30
2022-07-31T10:58:05.328Z,54.11
2022-07-31T10:59:05.322Z,54.30
2022-07-31T11:00:05.314Z,53.53
2022-07-31T11:01:05.339Z,53.53
2022-07-31T11:02:05.371Z,53.72
2022-07-31T11:03:05.311Z,53.63
2022-07-31T11:04:05.305Z,53.63
2022-07-31T11:05:05.316Z,53.63
2022-07-31T11:06:05.306Z,53.81
2022-07-31T11:07:05.583Z,53.53
2022-07-31T11:08:05.348Z,53.72
2022-07-31T11:09:05.305Z,53.53
2022-07-31T11:10:05.317Z,53.63
2022-07-31T11:11:05.305Z,53.63
2022-07-31T11:12:05.315Z,53.43
2022-07-31T11:13:05.304Z,53.53
2022-07-31T11:14:05.322Z,53.63
2022-07-31T11:15:05.309Z,54.01
2022-07-31T11:16:05.318Z,53.72
2022-07-31T11:17:05.589Z,53.33
2022-07-31T11:18:22.148Z,53.43
2022-07-31T11:19:05.312Z,53.33
2022-07-31T11:20:05.317Z,53.43
2022-07-31T11:21:17.840Z,53.63
2022-07-31T11:22:32.001Z,53.14
2022-07-31T11:23:05.323Z,53.04
2022-07-31T11:24:09.975Z,53.33
2022-07-31T11:25:05.309Z,53.23
2022-07-31T11:26:05.316Z,53.91
2022-07-31T11:27:05.667Z,53.23
2022-07-31T11:28:05.311Z,54.01
2022-07-31T11:30:01.084Z,53.23
2022-07-31T11:30:09.136Z,53.23
2022-07-31T11:31:05.317Z,53.23
2022-07-31T11:32:05.311Z,53.45
2022-07-31T11:33:05.321Z,53.53
2022-07-31T11:34:05.313Z,53.43
2022-07-31T11:35:05.323Z,53.33
2022-07-31T11:36:05.315Z,53.55
2022-07-31T11:37:06.685Z,53.33
2022-07-31T11:38:05.315Z,53.33
2022-07-31T11:39:05.320Z,53.45
2022-07-31T11:40:05.372Z,53.53
2022-07-31T11:41:05.315Z,53.55
2022-07-31T11:42:07.592Z,53.53
2022-07-31T11:43:25.308Z,53.23
2022-07-31T11:44:05.318Z,53.63
2022-07-31T11:45:11.064Z,53.63
2022-07-31T11:46:05.322Z,53.72
2022-07-31T11:47:55.979Z,53.43
2022-07-31T11:48:12.124Z,53.23
2022-07-31T11:49:05.412Z,53.43
2022-07-31T11:50:05.401Z,53.26
2022-07-31T11:51:05.320Z,53.63
2022-07-31T11:52:05.336Z,53.43
2022-07-31T11:53:05.319Z,53.33
2022-07-31T11:54:05.331Z,53.26
2022-07-31T11:55:08.895Z,53.33
2022-07-31T11:56:05.328Z,53.17
2022-07-31T11:57:05.684Z,53.07
2022-07-31T11:58:05.333Z,53.36
2022-07-31T12:00:33.150Z,53.36
2022-07-31T12:01:33.136Z,53.07
2022-07-31T12:02:33.180Z,53.36
2022-07-31T12:03:33.131Z,53.36
2022-07-31T12:04:33.132Z,53.36
2022-07-31T12:05:39.178Z,53.36
2022-07-31T12:06:36.390Z,52.97
2022-07-31T12:07:33.137Z,53.07
2022-07-31T12:08:33.146Z,53.07
2022-07-31T12:10:00.993Z,53.17
2022-07-31T12:10:33.154Z,53.45
2022-07-31T12:11:33.146Z,53.07
2022-07-31T12:12:33.145Z,53.36
2022-07-31T12:13:33.143Z,53.36
2022-07-31T12:14:33.141Z,53.36
2022-07-31T12:15:33.142Z,53.75
2022-07-31T12:16:33.151Z,53.45
2022-07-31T12:17:33.151Z,53.26
2022-07-31T12:18:33.142Z,53.07
2022-07-31T12:19:37.460Z,53.07
2022-07-31T12:20:36.619Z,53.26
2022-07-31T12:21:33.141Z,53.17
2022-07-31T12:22:33.147Z,53.07
2022-07-31T12:23:41.182Z,53.26
2022-07-31T12:24:33.147Z,53.26
2022-07-31T12:25:33.147Z,53.55
2022-07-31T12:26:33.165Z,53.17
2022-07-31T12:27:33.151Z,53.36
2022-07-31T12:28:33.156Z,53.17
2022-07-31T12:29:33.147Z,53.17
2022-07-31T12:30:33.155Z,53.26
2022-07-31T12:31:33.165Z,53.17
2022-07-31T12:32:33.172Z,53.36
2022-07-31T12:33:33.159Z,53.55
2022-07-31T12:34:33.161Z,53.36
2022-07-31T12:35:54.531Z,53.36
2022-07-31T12:36:33.156Z,53.17
2022-07-31T12:37:33.159Z,53.17
2022-07-31T12:38:44.685Z,53.17
2022-07-31T12:39:47.445Z,53.17
2022-07-31T12:40:33.162Z,53.36
2022-07-31T12:41:33.166Z,53.17
2022-07-31T12:42:37.611Z,53.45
2022-07-31T12:43:33.164Z,53.26
2022-07-31T12:44:33.187Z,53.36
2022-07-31T12:45:33.165Z,53.45
2022-07-31T12:46:33.159Z,52.97
2022-07-31T12:47:33.177Z,52.97
2022-07-31T12:48:38.594Z,53.17
2022-07-31T12:49:33.282Z,52.97
2022-07-31T12:50:33.172Z,52.68
2022-07-31T12:51:44.667Z,52.68
2022-07-31T12:52:33.169Z,52.68
2022-07-31T12:53:33.164Z,53.55
2022-07-31T12:54:37.730Z,53.07